MTN005 KGEG-KLAS
Flight info
| Callsign | MTN005 |
|---|---|
| Flight time | N/A |
| Altitude | 33000 |
| Route | ZATIP Q73 WINEN STEWW CHOWW4 |
| Aircraft | CRJ7/M-SDFGIRWY/S |
Departure
| Time | 2026-04-30 13:50 |
|---|---|
| Airport | Spokane International Airport (KGEG) |
Arrival
| Time | N/A |
|---|---|
| Airport | Harry Reid International Airport (KLAS) |
| Time | Latitude | Longitude | Altitude | Speed | Heading |
|---|---|---|---|---|---|
| 2026-04-30 13:15 | 47.62399 | -117.53621 | 2373 ft | 0 kts | 10° |
| 2026-04-30 13:39 | 47.62394 | -117.53622 | 2373 ft | 3 kts | 11° |
| 2026-04-30 13:40 | 47.62370 | -117.53636 | 2373 ft | 4 kts | 35° |
| 2026-04-30 13:40 | 47.62356 | -117.53665 | 2373 ft | 4 kts | 79° |
| 2026-04-30 13:40 | 47.62362 | -117.53699 | 2373 ft | 4 kts | 130° |
| 2026-04-30 13:40 | 47.62368 | -117.53709 | 2373 ft | 0 kts | 135° |
| 2026-04-30 13:45 | 47.62356 | -117.53690 | 2373 ft | 7 kts | 135° |
| 2026-04-30 13:46 | 47.62314 | -117.53669 | 2373 ft | 5 kts | 214° |
| 2026-04-30 13:46 | 47.62283 | -117.53706 | 2373 ft | 7 kts | 217° |
| 2026-04-30 13:46 | 47.62235 | -117.53731 | 2373 ft | 8 kts | 175° |
| 2026-04-30 13:46 | 47.62182 | -117.53708 | 2373 ft | 8 kts | 173° |
| 2026-04-30 13:47 | 47.62125 | -117.53736 | 2373 ft | 11 kts | 219° |
| 2026-04-30 13:47 | 47.62059 | -117.53830 | 2373 ft | 16 kts | 224° |
| 2026-04-30 13:47 | 47.61971 | -117.53961 | 2373 ft | 20 kts | 226° |
| 2026-04-30 13:47 | 47.61865 | -117.54123 | 2373 ft | 23 kts | 226° |
| 2026-04-30 13:48 | 47.61755 | -117.54290 | 2374 ft | 23 kts | 225° |
| 2026-04-30 13:48 | 47.61643 | -117.54458 | 2373 ft | 23 kts | 225° |
| 2026-04-30 13:48 | 47.61529 | -117.54631 | 2373 ft | 24 kts | 225° |
| 2026-04-30 13:48 | 47.61414 | -117.54806 | 2373 ft | 24 kts | 226° |
| 2026-04-30 13:49 | 47.61299 | -117.54981 | 2373 ft | 24 kts | 226° |
| 2026-04-30 13:49 | 47.61178 | -117.55143 | 2373 ft | 23 kts | 204° |
| 2026-04-30 13:49 | 47.61056 | -117.55042 | 2374 ft | 21 kts | 123° |
| 2026-04-30 13:49 | 47.61098 | -117.54884 | 2375 ft | 20 kts | 43° |
| 2026-04-30 13:50 | 47.61357 | -117.54484 | 2373 ft | 92 kts | 45° |
| 2026-04-30 13:50 | 47.62760 | -117.52333 | 2934 ft | 157 kts | 49° |
| 2026-04-30 13:50 | 47.63413 | -117.51148 | 3864 ft | 159 kts | 52° |
| 2026-04-30 13:51 | 47.64102 | -117.49837 | 4631 ft | 164 kts | 62° |
| 2026-04-30 13:51 | 47.64131 | -117.48218 | 5245 ft | 163 kts | 117° |
| 2026-04-30 13:51 | 47.63225 | -117.47188 | 5690 ft | 170 kts | 158° |
| 2026-04-30 13:51 | 47.62049 | -117.47088 | 6178 ft | 177 kts | 201° |
| 2026-04-30 13:52 | 47.60961 | -117.47912 | 6692 ft | 171 kts | 206° |
| 2026-04-30 13:52 | 47.59837 | -117.48682 | 7116 ft | 181 kts | 201° |
| 2026-04-30 13:52 | 47.58638 | -117.49298 | 7673 ft | 194 kts | 194° |
| 2026-04-30 13:52 | 47.57265 | -117.49757 | 7951 ft | 211 kts | 187° |
| 2026-04-30 13:53 | 47.55737 | -117.49870 | 8379 ft | 225 kts | 176° |
| 2026-04-30 13:53 | 47.54182 | -117.49561 | 9097 ft | 226 kts | 165° |
| 2026-04-30 13:53 | 47.52688 | -117.48826 | 9815 ft | 227 kts | 155° |
| 2026-04-30 13:53 | 47.51257 | -117.47797 | 10471 ft | 230 kts | 149° |
| 2026-04-30 13:54 | 47.49786 | -117.46599 | 10688 ft | 256 kts | 149° |
| 2026-04-30 13:54 | 47.48140 | -117.45248 | 10780 ft | 284 kts | 149° |
| 2026-04-30 13:54 | 47.46326 | -117.43828 | 11019 ft | 306 kts | 151° |
| 2026-04-30 13:54 | 47.44365 | -117.42354 | 11343 ft | 325 kts | 151° |
| 2026-04-30 13:55 | 47.42305 | -117.40803 | 11735 ft | 339 kts | 152° |
| 2026-04-30 13:55 | 47.40186 | -117.39213 | 12397 ft | 344 kts | 151° |
| 2026-04-30 13:55 | 47.38034 | -117.37592 | 13070 ft | 349 kts | 151° |
| 2026-04-30 13:55 | 47.35854 | -117.35958 | 13754 ft | 354 kts | 152° |
| 2026-04-30 13:56 | 47.33643 | -117.34300 | 14397 ft | 359 kts | 152° |
| 2026-04-30 13:56 | 47.31409 | -117.32627 | 14997 ft | 363 kts | 151° |
| 2026-04-30 13:56 | 47.29146 | -117.30928 | 15598 ft | 367 kts | 151° |
| 2026-04-30 13:56 | 47.26858 | -117.29221 | 16181 ft | 371 kts | 151° |
| 2026-04-30 13:57 | 47.24548 | -117.27491 | 16761 ft | 375 kts | 151° |
| 2026-04-30 13:57 | 47.22210 | -117.25748 | 17330 ft | 379 kts | 151° |
| 2026-04-30 13:57 | 47.19850 | -117.23984 | 17887 ft | 383 kts | 151° |
| 2026-04-30 13:57 | 47.17463 | -117.22208 | 18450 ft | 386 kts | 151° |
| 2026-04-30 13:58 | 47.15054 | -117.20412 | 18935 ft | 390 kts | 151° |
| 2026-04-30 13:58 | 47.10175 | -117.16789 | 19880 ft | 396 kts | 151° |
| 2026-04-30 13:58 | 47.07708 | -117.14956 | 20337 ft | 399 kts | 151° |
| 2026-04-30 13:59 | 47.05223 | -117.13112 | 20787 ft | 402 kts | 152° |
| 2026-04-30 13:59 | 47.02715 | -117.11261 | 21214 ft | 405 kts | 152° |
| 2026-04-30 13:59 | 47.00193 | -117.09392 | 21635 ft | 408 kts | 152° |
| 2026-04-30 13:59 | 46.97647 | -117.07512 | 22054 ft | 411 kts | 152° |
| 2026-04-30 14:00 | 46.95087 | -117.05625 | 22450 ft | 414 kts | 152° |
| 2026-04-30 14:00 | 46.89914 | -117.01810 | 23220 ft | 419 kts | 152° |
| 2026-04-30 14:00 | 46.87336 | -116.99918 | 23590 ft | 422 kts | 152° |
| 2026-04-30 14:01 | 46.84711 | -116.97988 | 23935 ft | 424 kts | 152° |
| 2026-04-30 14:01 | 46.82064 | -116.96045 | 24243 ft | 426 kts | 152° |
| 2026-04-30 14:01 | 46.79409 | -116.94095 | 24536 ft | 429 kts | 152° |
| 2026-04-30 14:01 | 46.76737 | -116.92143 | 24828 ft | 431 kts | 152° |
| 2026-04-30 14:02 | 46.74055 | -116.90177 | 25117 ft | 433 kts | 152° |
| 2026-04-30 14:02 | 46.71360 | -116.88210 | 25408 ft | 434 kts | 152° |
| 2026-04-30 14:02 | 46.68651 | -116.86233 | 25673 ft | 436 kts | 152° |
| 2026-04-30 14:02 | 46.65925 | -116.84248 | 25941 ft | 438 kts | 152° |
| 2026-04-30 14:03 | 46.63197 | -116.82257 | 26201 ft | 440 kts | 152° |
| 2026-04-30 14:03 | 46.60450 | -116.80262 | 26456 ft | 442 kts | 152° |
| 2026-04-30 14:03 | 46.57692 | -116.78255 | 26688 ft | 444 kts | 152° |
| 2026-04-30 14:03 | 46.54922 | -116.76248 | 26932 ft | 446 kts | 152° |
| 2026-04-30 14:04 | 46.52141 | -116.74232 | 27175 ft | 448 kts | 152° |
| 2026-04-30 14:04 | 46.49340 | -116.72204 | 27410 ft | 450 kts | 152° |
| 2026-04-30 14:04 | 46.46541 | -116.70179 | 27648 ft | 451 kts | 153° |
| 2026-04-30 14:04 | 46.43724 | -116.68144 | 27872 ft | 453 kts | 152° |
| 2026-04-30 14:05 | 46.40900 | -116.66105 | 28080 ft | 454 kts | 153° |
| 2026-04-30 14:05 | 46.38066 | -116.64068 | 28284 ft | 456 kts | 153° |
| 2026-04-30 14:05 | 46.35216 | -116.62014 | 28476 ft | 458 kts | 153° |
| 2026-04-30 14:05 | 46.32366 | -116.59967 | 28757 ft | 457 kts | 153° |
| 2026-04-30 14:06 | 46.29517 | -116.57921 | 29032 ft | 457 kts | 153° |
| 2026-04-30 14:06 | 46.23825 | -116.53832 | 29563 ft | 456 kts | 153° |
| 2026-04-30 14:07 | 46.17967 | -116.50332 | 30055 ft | 456 kts | 161° |
| 2026-04-30 14:07 | 46.14950 | -116.48911 | 30282 ft | 456 kts | 162° |
| 2026-04-30 14:07 | 46.11934 | -116.47491 | 30483 ft | 456 kts | 162° |
| 2026-04-30 14:08 | 46.05950 | -116.44475 | 30865 ft | 456 kts | 160° |
| 2026-04-30 14:08 | 46.02958 | -116.42950 | 31037 ft | 456 kts | 160° |
| 2026-04-30 14:08 | 45.96968 | -116.39900 | 31375 ft | 457 kts | 161° |
| 2026-04-30 14:09 | 45.93973 | -116.38375 | 31546 ft | 457 kts | 161° |
| 2026-04-30 14:09 | 45.90970 | -116.36853 | 31725 ft | 457 kts | 161° |
| 2026-04-30 14:09 | 45.84977 | -116.33814 | 32055 ft | 457 kts | 161° |
| 2026-04-30 14:10 | 45.81967 | -116.32292 | 32219 ft | 458 kts | 161° |
| 2026-04-30 14:10 | 45.78963 | -116.30775 | 32372 ft | 458 kts | 161° |
| 2026-04-30 14:10 | 45.75955 | -116.29255 | 32541 ft | 458 kts | 161° |
| 2026-04-30 14:10 | 45.72947 | -116.27737 | 32687 ft | 459 kts | 161° |
| 2026-04-30 14:11 | 45.69930 | -116.26218 | 32834 ft | 459 kts | 161° |
| 2026-04-30 14:11 | 45.66913 | -116.24700 | 32979 ft | 460 kts | 161° |
| 2026-04-30 14:11 | 45.63897 | -116.23186 | 33141 ft | 460 kts | 161° |
| 2026-04-30 14:12 | 45.57826 | -116.20140 | 33253 ft | 465 kts | 161° |
| 2026-04-30 14:12 | 45.51669 | -116.17057 | 33268 ft | 472 kts | 161° |
| 2026-04-30 14:13 | 45.45426 | -116.13938 | 33265 ft | 479 kts | 161° |
| 2026-04-30 14:13 | 45.39148 | -116.10805 | 33259 ft | 484 kts | 161° |
| 2026-04-30 14:14 | 45.32757 | -116.07633 | 33271 ft | 484 kts | 161° |
| 2026-04-30 14:14 | 45.26380 | -116.04469 | 33258 ft | 485 kts | 161° |
| 2026-04-30 14:15 | 45.19990 | -116.01306 | 33265 ft | 495 kts | 161° |
| 2026-04-30 14:15 | 45.13862 | -115.98285 | 33274 ft | 502 kts | 161° |
| 2026-04-30 14:16 | 45.07284 | -115.95043 | 33262 ft | 496 kts | 161° |
| 2026-04-30 14:16 | 45.01522 | -115.92217 | 33250 ft | 494 kts | 161° |
| 2026-04-30 14:17 | 44.95031 | -115.89036 | 33253 ft | 493 kts | 161° |
| 2026-04-30 14:17 | 44.88547 | -115.85857 | 33254 ft | 493 kts | 161° |
| 2026-04-30 14:18 | 44.82062 | -115.82697 | 33250 ft | 493 kts | 161° |
| 2026-04-30 14:18 | 44.72297 | -115.77951 | 33241 ft | 499 kts | 161° |
| 2026-04-30 14:19 | 44.62427 | -115.73179 | 33224 ft | 498 kts | 162° |
| 2026-04-30 14:20 | 44.55890 | -115.69994 | 33219 ft | 496 kts | 161° |
| 2026-04-30 14:20 | 44.46098 | -115.65288 | 33213 ft | 496 kts | 161° |
| 2026-04-30 14:21 | 44.39559 | -115.62148 | 33207 ft | 497 kts | 161° |
| 2026-04-30 14:22 | 44.30846 | -115.57975 | 33205 ft | 498 kts | 162° |
| 2026-04-30 14:22 | 44.21004 | -115.53271 | 33197 ft | 499 kts | 162° |
| 2026-04-30 14:23 | 44.07862 | -115.47022 | 33193 ft | 500 kts | 162° |
| 2026-04-30 14:24 | 43.97981 | -115.42345 | 33181 ft | 501 kts | 162° |
| 2026-04-30 14:25 | 43.84824 | -115.36137 | 33174 ft | 502 kts | 162° |
| 2026-04-30 14:26 | 43.74900 | -115.31472 | 33180 ft | 504 kts | 162° |
| 2026-04-30 14:27 | 43.64872 | -115.26783 | 33153 ft | 502 kts | 162° |
| 2026-04-30 14:27 | 43.58280 | -115.23706 | 33157 ft | 505 kts | 162° |
| 2026-04-30 14:28 | 43.48235 | -115.19031 | 33160 ft | 510 kts | 162° |
| 2026-04-30 14:28 | 43.41528 | -115.15919 | 33155 ft | 507 kts | 162° |
| 2026-04-30 14:29 | 43.28102 | -115.10039 | 33147 ft | 509 kts | 165° |
| 2026-04-30 14:31 | 43.11169 | -115.03181 | 33185 ft | 507 kts | 165° |
| 2026-04-30 14:31 | 43.01018 | -114.99089 | 33216 ft | 508 kts | 165° |
| 2026-04-30 14:32 | 42.90814 | -114.94987 | 33237 ft | 507 kts | 165° |
| 2026-04-30 14:33 | 42.84069 | -114.92285 | 33241 ft | 507 kts | 165° |
| 2026-04-30 14:33 | 42.73812 | -114.88233 | 33218 ft | 515 kts | 168° |
| 2026-04-30 14:34 | 42.66735 | -114.86849 | 33195 ft | 512 kts | 178° |
| 2026-04-30 14:34 | 42.59700 | -114.86345 | 33169 ft | 507 kts | 179° |
| 2026-04-30 14:35 | 42.49285 | -114.85339 | 33166 ft | 494 kts | 178° |
| 2026-04-30 14:36 | 42.42462 | -114.84665 | 33165 ft | 491 kts | 178° |
| 2026-04-30 14:36 | 42.35597 | -114.83984 | 33166 ft | 498 kts | 178° |
| 2026-04-30 14:37 | 42.28635 | -114.83295 | 33153 ft | 505 kts | 178° |
| 2026-04-30 14:37 | 42.21582 | -114.82601 | 33135 ft | 511 kts | 178° |
| 2026-04-30 14:38 | 42.14448 | -114.81900 | 33139 ft | 517 kts | 178° |
| 2026-04-30 14:38 | 42.07245 | -114.81187 | 33121 ft | 521 kts | 178° |
| 2026-04-30 14:39 | 41.99999 | -114.80476 | 33124 ft | 524 kts | 178° |
| 2026-04-30 14:39 | 41.92703 | -114.79765 | 33130 ft | 526 kts | 178° |
| 2026-04-30 14:40 | 41.81736 | -114.78693 | 33121 ft | 527 kts | 178° |
| 2026-04-30 14:40 | 41.74413 | -114.77983 | 33123 ft | 528 kts | 179° |
| 2026-04-30 14:41 | 41.67088 | -114.77270 | 33147 ft | 529 kts | 179° |
| 2026-04-30 14:41 | 41.59713 | -114.76554 | 33136 ft | 532 kts | 179° |
| 2026-04-30 14:42 | 41.52327 | -114.75842 | 33140 ft | 531 kts | 179° |
| 2026-04-30 14:42 | 41.45005 | -114.75135 | 33136 ft | 524 kts | 179° |
| 2026-04-30 14:43 | 41.37772 | -114.74443 | 33134 ft | 519 kts | 179° |
| 2026-04-30 14:43 | 41.30595 | -114.73754 | 33141 ft | 517 kts | 179° |
| 2026-04-30 14:44 | 41.23417 | -114.73066 | 33147 ft | 517 kts | 179° |
| 2026-04-30 14:44 | 41.16282 | -114.72388 | 33144 ft | 518 kts | 179° |
| 2026-04-30 14:45 | 41.09100 | -114.71700 | 33144 ft | 518 kts | 179° |
| 2026-04-30 14:45 | 41.01910 | -114.71019 | 33152 ft | 518 kts | 179° |
| 2026-04-30 14:46 | 40.94723 | -114.70337 | 33156 ft | 518 kts | 179° |
| 2026-04-30 14:46 | 40.87526 | -114.69654 | 33159 ft | 519 kts | 179° |
| 2026-04-30 14:47 | 40.80330 | -114.68975 | 33166 ft | 519 kts | 179° |
| 2026-04-30 14:47 | 40.73123 | -114.68294 | 33169 ft | 519 kts | 179° |
| 2026-04-30 14:48 | 40.65906 | -114.67619 | 33174 ft | 520 kts | 179° |
| 2026-04-30 14:48 | 40.58681 | -114.66937 | 33186 ft | 521 kts | 180° |
| 2026-04-30 14:49 | 40.51449 | -114.66260 | 33172 ft | 522 kts | 180° |
| 2026-04-30 14:49 | 40.44199 | -114.65580 | 33160 ft | 522 kts | 180° |
| 2026-04-30 14:50 | 40.33310 | -114.64568 | 33156 ft | 523 kts | 180° |
| 2026-04-30 14:51 | 40.22408 | -114.63556 | 33160 ft | 525 kts | 180° |
| 2026-04-30 14:52 | 40.11468 | -114.62546 | 33150 ft | 525 kts | 180° |
| 2026-04-30 14:52 | 40.00524 | -114.61531 | 33162 ft | 526 kts | 180° |
| 2026-04-30 14:53 | 39.89629 | -114.60525 | 33148 ft | 525 kts | 180° |
| 2026-04-30 14:54 | 39.75060 | -114.59191 | 33152 ft | 521 kts | 180° |
| 2026-04-30 14:55 | 39.64240 | -114.58208 | 33135 ft | 518 kts | 180° |
| 2026-04-30 14:56 | 39.49896 | -114.56901 | 33149 ft | 515 kts | 181° |
| 2026-04-30 14:57 | 39.39189 | -114.55933 | 33163 ft | 513 kts | 181° |
| 2026-04-30 14:57 | 39.32144 | -114.54826 | 33166 ft | 519 kts | 167° |
| 2026-04-30 14:58 | 39.25419 | -114.51380 | 33127 ft | 521 kts | 157° |
| 2026-04-30 14:58 | 39.16107 | -114.44138 | 33144 ft | 522 kts | 148° |
| 2026-04-30 15:00 | 39.00617 | -114.31993 | 33161 ft | 522 kts | 150° |
| 2026-04-30 15:01 | 38.88179 | -114.22333 | 33113 ft | 521 kts | 151° |
| 2026-04-30 15:01 | 38.78887 | -114.15144 | 33113 ft | 519 kts | 151° |
| 2026-04-30 15:02 | 38.72704 | -114.10376 | 33120 ft | 519 kts | 151° |
| 2026-04-30 15:03 | 38.57254 | -113.98496 | 33131 ft | 518 kts | 152° |
| 2026-04-30 15:04 | 38.41819 | -113.86689 | 33102 ft | 516 kts | 152° |
| 2026-04-30 15:06 | 38.26477 | -113.75010 | 33093 ft | 514 kts | 152° |
| 2026-04-30 15:07 | 38.14215 | -113.65719 | 33087 ft | 512 kts | 153° |
| 2026-04-30 15:08 | 38.01973 | -113.56478 | 33080 ft | 511 kts | 153° |
| 2026-04-30 15:08 | 37.92287 | -113.51686 | 33080 ft | 493 kts | 176° |
| 2026-04-30 15:09 | 37.85516 | -113.50562 | 33075 ft | 489 kts | 180° |
| 2026-04-30 15:09 | 37.78810 | -113.50603 | 33079 ft | 478 kts | 191° |
| 2026-04-30 15:10 | 37.73308 | -113.51114 | 33076 ft | 478 kts | 190° |
| 2026-04-30 15:11 | 37.53368 | -113.52149 | 33050 ft | 477 kts | 188° |
| 2026-04-30 15:13 | 37.36827 | -113.52999 | 32832 ft | 476 kts | 188° |
| 2026-04-30 15:14 | 37.24172 | -113.54789 | 30644 ft | 433 kts | 203° |
| 2026-04-30 15:14 | 37.15897 | -113.58451 | 28922 ft | 408 kts | 212° |
| 2026-04-30 15:16 | 37.03029 | -113.66242 | 26304 ft | 428 kts | 211° |
| 2026-04-30 15:17 | 36.92255 | -113.72510 | 24505 ft | 425 kts | 211° |
| 2026-04-30 15:18 | 36.78497 | -113.79434 | 21494 ft | 428 kts | 182° |
| 2026-04-30 15:19 | 36.71282 | -113.74375 | 20063 ft | 399 kts | 131° |